Weather at Sparwood Elk Valley Airport

Public forecast

Using degrees Celsius for public forecast. Weather courtesy of forecast.io.

Closest aviation weather report (METAR) to Sparwood Elk Valley Airport

Closest report is Cranbrook/Canadian Rockies International Airport, 37.5 nm (69.5 km) WSW.

2024/05/22 18:00 (retrieved 22 minutes ago)

CYXC 221800Z VRB02KT 25SM FEW028 SCT054 BKN100 OVC210 11/05 A2974 RMK SC2SC2AS3CI1 SH DIST SE-NW SLP080 DENSITY ALT 3600FT

Closest aviation forecast (TAF) to Sparwood Elk Valley Airport

Closest forecast is Cranbrook/Canadian Rockies International Airport, 37.5 nm (69.5 km) WSW.

2024/05/22 14:15 Ammendment (retrieved 4 hours ago)

TAF AMD TAF AMD CYXC 221414Z 2214/2301 09005KT P6SM FEW008 SCT030 BKN050 TEMPO 2214/2217 P6SM -SHRA BKN008 OVC030 BECMG 2215/2217 36008KT FM221700 36008KT P6SM BKN050 TEMPO 2217/2223 P6SM -SHRA SCT020 BKN040 FM222300 36006KT P6SM BKN050 TEMPO 2223/2301 P6SM -SHRA VCTS OVC040CB RMK NXT FCST BY 221900Z